Time;durP1;ratioP1;P1;durP2;ratioP2;P2;SDS_P1;SDS_P2;PMS_P1;PMS_P2;Temp;Humidity;BMP_temperature;BMP_pressure;BME280_temperature;BME280_humidity;BME280_pressure;Samples;Min_cycle;Max_cycle;Signal;HPM_P1;HPM_P2
2023/10/05 00:02:10;;;;;;;6.03;1.80;;;;;;;;;;4940791;29;20338;-92
2023/10/05 00:04:41;;;;;;;7.70;2.10;;;;;;;;;;4940482;29;20433;-92
2023/10/05 00:07:08;;;;;;;4.93;1.80;;;;;;;;;;4940514;29;20443;-92
2023/10/05 00:09:34;;;;;;;3.47;1.60;;;;;;;;;;4950828;29;20473;-92
2023/10/05 00:12:03;;;;;;;5.05;1.92;;;;;;;;;;4958763;28;20066;-91
2023/10/05 00:14:29;;;;;;;6.00;1.90;;;;;;;;;;4958800;29;20066;-93
2023/10/05 00:16:55;;;;;;;6.22;2.13;;;;;;;;;;4958754;29;20035;-92
2023/10/05 00:25:32;;;;;;;5.90;2.40;;;;;;;;;;4937802;29;20118;-89
2023/10/05 00:28:01;;;;;;;11.88;2.60;;;;;;;;;;4959649;28;20044;-89
2023/10/05 00:30:27;;;;;;;7.00;2.67;;;;;;;;;;4959467;28;20035;-90
2023/10/05 00:32:57;;;;;;;9.40;2.78;;;;;;;;;;4943694;28;20162;-90
2023/10/05 00:35:28;;;;;;;9.85;2.97;;;;;;;;;;4958075;29;20038;-90
2023/10/05 00:37:57;;;;;;;6.10;2.63;;;;;;;;;;4956438;29;20184;-91
2023/10/05 00:40:37;;;;;;;9.18;2.70;;;;;;;;;;4947065;29;20053;-90
2023/10/05 00:43:07;;;;;;;9.75;2.83;;;;;;;;;;4941494;29;20016;-91
2023/10/05 00:45:33;;;;;;;8.93;3.30;;;;;;;;;;4958446;29;20036;-90
2023/10/05 00:48:13;;;;;;;12.85;5.20;;;;;;;;;;4959197;29;20047;-91
2023/10/05 00:56:47;;;;;;;8.38;3.10;;;;;;;;;;4940027;29;20046;-90
2023/10/05 00:59:20;;;;;;;9.00;3.20;;;;;;;;;;4951092;29;20421;-93
2023/10/05 01:06:56;;;;;;;7.93;2.78;;;;;;;;;;4959054;29;20382;-93
2023/10/05 01:14:50;;;;;;;7.15;2.88;;;;;;;;;;4937548;29;20055;-92
2023/10/05 01:17:20;;;;;;;8.05;2.42;;;;;;;;;;4938288;29;20032;-93
2023/10/05 01:23:04;;;;;;;6.80;3.28;;;;;;;;;;4900104;29;20238;-93
2023/10/05 01:25:31;;;;;;;8.25;3.00;;;;;;;;;;4888102;29;20053;-93
2023/10/05 01:27:58;;;;;;;5.30;2.88;;;;;;;;;;4903614;29;20415;-92
2023/10/05 01:30:24;;;;;;;8.45;2.80;;;;;;;;;;4888165;29;20486;-93
2023/10/05 01:32:50;;;;;;;14.57;3.20;;;;;;;;;;4903519;29;20435;-92
2023/10/05 01:35:37;;;;;;;8.25;2.70;;;;;;;;;;4903410;29;20103;-92
2023/10/05 01:38:04;;;;;;;9.55;3.00;;;;;;;;;;4903711;29;20123;-93
2023/10/05 01:40:30;;;;;;;9.15;2.58;;;;;;;;;;4887876;29;20024;-94
2023/10/05 01:42:56;;;;;;;12.00;3.35;;;;;;;;;;4887919;29;20032;-93
2023/10/05 01:45:29;;;;;;;9.98;2.80;;;;;;;;;;4884824;29;20136;-95
2023/10/05 01:47:56;;;;;;;7.97;2.25;;;;;;;;;;4884945;29;20120;-93
2023/10/05 01:50:23;;;;;;;11.95;3.13;;;;;;;;;;4884683;29;20041;-95
2023/10/05 01:55:32;;;;;;;5.20;2.45;;;;;;;;;;4903515;29;20092;-93
2023/10/05 01:57:58;;;;;;;8.15;2.50;;;;;;;;;;4897748;29;20441;-91
2023/10/05 02:00:25;;;;;;;6.05;2.20;;;;;;;;;;4943961;29;20295;-92
2023/10/05 02:02:55;;;;;;;8.80;2.38;;;;;;;;;;4942777;29;20103;-92
2023/10/05 02:08:27;;;;;;;8.27;3.30;;;;;;;;;;4944460;29;20066;-92
2023/10/05 02:10:53;;;;;;;6.50;3.22;;;;;;;;;;4961758;28;20102;-91
2023/10/05 02:13:19;;;;;;;12.52;2.60;;;;;;;;;;4960580;29;20027;-91
2023/10/05 02:15:48;;;;;;;6.78;2.67;;;;;;;;;;4960543;29;20402;-91
2023/10/05 02:18:28;;;;;;;8.05;2.72;;;;;;;;;;4960555;29;20119;-91
2023/10/05 02:23:34;;;;;;;10.85;2.33;;;;;;;;;;4961210;29;20031;-91
2023/10/05 02:28:56;;;;;;;15.63;2.65;;;;;;;;;;4936322;29;20075;-92
2023/10/05 02:31:22;;;;;;;9.23;2.63;;;;;;;;;;4905674;29;20039;-92
2023/10/05 02:33:52;;;;;;;8.15;2.63;;;;;;;;;;4921417;29;20115;-92
2023/10/05 02:36:36;;;;;;;9.32;2.80;;;;;;;;;;4921339;29;20338;-92
2023/10/05 02:39:02;;;;;;;7.68;2.58;;;;;;;;;;4905416;29;20371;-92
2023/10/05 02:41:40;;;;;;;5.07;2.38;;;;;;;;;;4905630;29;20168;-92
2023/10/05 02:46:48;;;;;;;7.15;3.00;;;;;;;;;;4921276;29;20519;-92
2023/10/05 02:52:34;;;;;;;10.63;2.83;;;;;;;;;;4940390;29;20050;-92
2023/10/05 02:55:00;;;;;;;7.13;2.83;;;;;;;;;;4940140;29;20110;-92
2023/10/05 02:57:26;;;;;;;7.57;2.72;;;;;;;;;;4923959;29;20028;-92
2023/10/05 02:59:52;;;;;;;8.98;2.67;;;;;;;;;;4923717;29;20028;-93
2023/10/05 03:02:18;;;;;;;7.70;2.67;;;;;;;;;;4940169;29;20111;-92
2023/10/05 03:07:48;;;;;;;11.73;3.17;;;;;;;;;;4941602;29;20034;-93
2023/10/05 03:10:16;;;;;;;8.35;2.80;;;;;;;;;;4941229;29;20058;-92
2023/10/05 03:12:43;;;;;;;10.00;2.92;;;;;;;;;;4941179;29;20102;-91
2023/10/05 03:15:12;;;;;;;8.10;2.95;;;;;;;;;;4941543;29;20044;-93
2023/10/05 03:17:38;;;;;;;11.88;3.28;;;;;;;;;;4941388;29;20354;-93
2023/10/05 03:20:15;;;;;;;9.82;3.38;;;;;;;;;;4940214;29;20023;-91
2023/10/05 03:22:45;;;;;;;9.25;3.00;;;;;;;;;;4941160;29;20036;-90
2023/10/05 03:25:14;;;;;;;12.73;3.03;;;;;;;;;;4940924;29;20047;-91
2023/10/05 03:27:41;;;;;;;7.40;2.78;;;;;;;;;;4954136;29;20051;-90
2023/10/05 03:30:13;;;;;;;8.90;2.90;;;;;;;;;;4957484;28;20031;-92
2023/10/05 03:32:40;;;;;;;7.85;3.20;;;;;;;;;;4960421;28;20041;-92
2023/10/05 03:35:09;;;;;;;6.60;3.00;;;;;;;;;;4959448;29;20070;-93
2023/10/05 03:37:39;;;;;;;8.95;2.63;;;;;;;;;;4957620;29;20071;-90
2023/10/05 03:42:31;;;;;;;7.68;2.60;;;;;;;;;;4940713;29;20028;-87
2023/10/05 03:45:03;;;;;;;8.40;2.75;;;;;;;;;;4943901;29;20023;-87
2023/10/05 03:47:29;;;;;;;8.93;3.10;;;;;;;;;;4958588;28;20035;-87
2023/10/05 03:49:55;;;;;;;9.13;3.00;;;;;;;;;;4959662;28;20027;-86
2023/10/05 03:52:21;;;;;;;7.00;2.85;;;;;;;;;;4958847;29;20031;-88
2023/10/05 03:54:47;;;;;;;11.27;3.20;;;;;;;;;;4958844;29;20039;-86
2023/10/05 03:57:13;;;;;;;10.80;3.35;;;;;;;;;;4958772;29;20045;-87
2023/10/05 03:59:43;;;;;;;7.47;3.50;;;;;;;;;;4959061;29;20027;-87
2023/10/05 04:02:09;;;;;;;9.07;3.03;;;;;;;;;;4959624;28;20019;-86
2023/10/05 04:04:36;;;;;;;8.85;3.25;;;;;;;;;;4959880;28;20082;-86
2023/10/05 04:07:03;;;;;;;6.78;3.13;;;;;;;;;;4958692;29;20032;-87
2023/10/05 04:09:29;;;;;;;6.05;3.08;;;;;;;;;;4947342;29;20040;-87
2023/10/05 04:12:00;;;;;;;11.00;2.88;;;;;;;;;;4940389;29;20059;-87
2023/10/05 04:14:28;;;;;;;9.88;2.97;;;;;;;;;;4940569;29;20032;-87
2023/10/05 04:16:56;;;;;;;8.55;3.83;;;;;;;;;;4939443;29;20055;-87
2023/10/05 04:19:32;;;;;;;6.68;3.88;;;;;;;;;;4940443;29;20030;-88
2023/10/05 04:21:59;;;;;;;8.20;4.10;;;;;;;;;;4952539;29;20020;-85
2023/10/05 04:24:27;;;;;;;11.93;4.25;;;;;;;;;;4956811;28;20038;-86
2023/10/05 04:26:53;;;;;;;13.02;3.53;;;;;;;;;;4947547;29;20058;-86
2023/10/05 04:29:23;;;;;;;9.93;3.42;;;;;;;;;;4947036;29;20295;-86
2023/10/05 04:31:51;;;;;;;8.60;3.15;;;;;;;;;;4956387;28;20055;-86
2023/10/05 04:34:22;;;;;;;16.88;4.22;;;;;;;;;;4940482;29;20052;-87
2023/10/05 04:36:49;;;;;;;14.48;3.47;;;;;;;;;;4939995;29;20052;-86
2023/10/05 04:39:29;;;;;;;9.02;3.35;;;;;;;;;;4939279;29;20358;-86
2023/10/05 04:41:56;;;;;;;10.43;3.33;;;;;;;;;;4940319;29;20031;-86
2023/10/05 04:44:23;;;;;;;7.13;2.97;;;;;;;;;;4948307;29;20016;-85
2023/10/05 04:46:51;;;;;;;7.63;3.20;;;;;;;;;;4939022;29;20035;-86
2023/10/05 04:49:18;;;;;;;12.80;3.25;;;;;;;;;;4940254;29;20028;-86
2023/10/05 04:54:57;;;;;;;14.15;4.30;;;;;;;;;;4940308;29;20079;-87
2023/10/05 04:57:35;;;;;;;16.70;4.88;;;;;;;;;;4939408;29;20126;-87
2023/10/05 05:00:48;;;;;;;8.38;3.40;;;;;;;;;;4942011;29;20024;-86
2023/10/05 05:03:16;;;;;;;16.23;3.85;;;;;;;;;;4943709;29;20039;-87
2023/10/05 05:06:15;;;;;;;9.70;3.53;;;;;;;;;;4943017;29;20111;-87
2023/10/05 05:08:42;;;;;;;10.35;3.22;;;;;;;;;;4943811;29;20038;-87
2023/10/05 05:11:08;;;;;;;7.65;3.20;;;;;;;;;;4942555;29;20078;-86
2023/10/05 05:13:36;;;;;;;14.65;3.53;;;;;;;;;;4942611;29;20027;-87
2023/10/05 05:16:05;;;;;;;13.55;3.58;;;;;;;;;;4942357;29;20119;-87
2023/10/05 05:18:31;;;;;;;9.07;3.25;;;;;;;;;;4944269;29;20115;-86
2023/10/05 05:20:57;;;;;;;6.63;3.30;;;;;;;;;;4962663;29;20030;-86
2023/10/05 05:23:23;;;;;;;8.15;3.83;;;;;;;;;;4961666;29;20028;-87
2023/10/05 05:25:51;;;;;;;11.93;3.65;;;;;;;;;;4947005;29;20086;-87
2023/10/05 05:28:17;;;;;;;8.25;3.60;;;;;;;;;;4943453;29;20031;-86
2023/10/05 05:30:43;;;;;;;13.10;3.78;;;;;;;;;;4943023;29;20024;-85
2023/10/05 05:33:13;;;;;;;8.40;4.03;;;;;;;;;;4942783;29;20489;-86
2023/10/05 05:36:17;;;;;;;8.30;3.35;;;;;;;;;;4942283;29;20040;-86
2023/10/05 05:38:52;;;;;;;7.45;3.60;;;;;;;;;;4942967;29;20047;-87
2023/10/05 05:41:27;;;;;;;7.93;3.85;;;;;;;;;;4942921;29;20103;-87
2023/10/05 05:43:53;;;;;;;12.38;4.45;;;;;;;;;;4941991;29;20023;-86
2023/10/05 05:46:19;;;;;;;17.20;4.57;;;;;;;;;;4952396;29;20154;-86
2023/10/05 05:48:48;;;;;;;13.27;4.10;;;;;;;;;;4961034;29;20147;-86
2023/10/05 05:51:15;;;;;;;15.40;4.25;;;;;;;;;;4961640;28;20027;-86
2023/10/05 05:53:47;;;;;;;19.02;4.28;;;;;;;;;;4952803;29;20032;-86
2023/10/05 05:56:19;;;;;;;16.13;4.50;;;;;;;;;;4941623;29;20130;-86
2023/10/05 05:58:45;;;;;;;;;;;;;;;;;;4943356;29;20048;-86
2023/10/05 06:01:14;;;;;;;13.20;3.38;;;;;;;;;;4942669;29;19914;-86
2023/10/05 06:03:42;;;;;;;10.85;3.72;;;;;;;;;;4942537;29;20027;-86
2023/10/05 06:09:19;;;;;;;8.70;3.10;;;;;;;;;;4946956;29;20067;-88
2023/10/05 06:11:48;;;;;;;9.75;4.72;;;;;;;;;;4942113;29;20043;-88
2023/10/05 06:14:15;;;;;;;13.23;4.10;;;;;;;;;;4941474;29;20024;-89
2023/10/05 06:16:41;;;;;;;8.70;3.55;;;;;;;;;;4941491;29;20032;-89
2023/10/05 06:19:08;;;;;;;8.63;4.30;;;;;;;;;;4942080;29;20066;-89
2023/10/05 06:21:52;;;;;;;10.38;3.92;;;;;;;;;;4942171;29;20027;-88
2023/10/05 06:24:18;;;;;;;12.82;4.32;;;;;;;;;;4941474;29;20071;-88
2023/10/05 06:26:45;;;;;;;18.35;4.78;;;;;;;;;;4941195;29;20050;-89
2023/10/05 06:29:13;;;;;;;13.43;5.22;;;;;;;;;;4941159;29;20035;-90
2023/10/05 06:31:40;;;;;;;11.15;4.00;;;;;;;;;;4941125;29;20034;-89
2023/10/05 06:34:10;;;;;;;10.80;4.65;;;;;;;;;;4940822;29;20149;-87
2023/10/05 06:36:39;;;;;;;8.90;4.15;;;;;;;;;;4942171;29;20039;-88
2023/10/05 06:39:06;;;;;;;13.55;4.93;;;;;;;;;;4944008;29;20028;-88
2023/10/05 06:41:34;;;;;;;10.60;4.28;;;;;;;;;;4949299;29;20027;-89
2023/10/05 06:44:00;;;;;;;9.30;3.97;;;;;;;;;;4957961;29;20035;-87
2023/10/05 06:46:27;;;;;;;10.25;4.10;;;;;;;;;;4959434;29;20045;-86
2023/10/05 06:48:53;;;;;;;8.95;3.97;;;;;;;;;;4948926;29;20035;-87
2023/10/05 06:51:25;;;;;;;10.10;4.50;;;;;;;;;;4941890;29;20054;-88
2023/10/05 06:53:52;;;;;;;;;;;;;;;;;;4941233;29;20038;-88
2023/10/05 06:56:18;;;;;;;19.98;9.02;;;;;;;;;;4943721;29;19914;-87
2023/10/05 06:58:45;;;;;;;13.73;7.03;;;;;;;;;;4946905;29;20019;-86
2023/10/05 11:43:18;;;;;;;7.75;2.50;;;;;;;;;;5115493;27;20365;-87
2023/10/05 11:45:56;;;;;;;4.85;2.00;;;;;;;;;;5114747;28;20032;-89
2023/10/05 11:54:34;;;;;;;7.57;2.38;;;;;;;;;;5114739;28;20107;-92
2023/10/05 11:57:00;;;;;;;8.77;2.80;;;;;;;;;;5114984;28;20023;-92
2023/10/05 11:59:39;;;;;;;6.10;2.55;;;;;;;;;;5114995;28;20055;-93
2023/10/05 12:05:10;;;;;;;9.30;2.45;;;;;;;;;;5114947;28;20070;-94
2023/10/05 12:07:41;;;;;;;8.45;2.50;;;;;;;;;;5115248;28;20028;-93
2023/10/05 12:10:09;;;;;;;9.02;3.08;;;;;;;;;;5114206;28;20051;-92
2023/10/05 12:12:36;;;;;;;11.77;2.90;;;;;;;;;;5114775;28;20039;-93
2023/10/05 12:15:12;;;;;;;5.97;2.20;;;;;;;;;;5114393;28;20036;-93
2023/10/05 12:17:39;;;;;;;7.45;1.90;;;;;;;;;;5113869;28;20077;-93
2023/10/05 12:20:07;;;;;;;7.45;2.58;;;;;;;;;;5114681;28;20016;-92
2023/10/05 12:22:33;;;;;;;8.15;2.10;;;;;;;;;;5114660;28;20024;-92
2023/10/05 12:24:59;;;;;;;6.25;2.55;;;;;;;;;;5114904;28;20068;-91
2023/10/05 12:27:26;;;;;;;6.32;2.17;;;;;;;;;;5113780;28;20055;-93
2023/10/05 12:29:52;;;;;;;6.03;1.90;;;;;;;;;;5114584;28;20024;-92
2023/10/05 12:32:21;;;;;;;7.38;2.08;;;;;;;;;;5113193;28;20027;-89
2023/10/05 12:34:51;;;;;;;5.63;2.33;;;;;;;;;;5112661;28;20027;-88
2023/10/05 12:37:17;;;;;;;11.32;2.58;;;;;;;;;;5113568;28;20019;-86
2023/10/05 12:39:45;;;;;;;8.20;2.17;;;;;;;;;;5108500;28;20118;-87
2023/10/05 12:42:11;;;;;;;11.98;2.53;;;;;;;;;;5097127;28;20131;-86
2023/10/05 12:44:39;;;;;;;4.80;2.15;;;;;;;;;;5120472;28;20024;-87
2023/10/05 12:47:07;;;;;;;9.02;2.25;;;;;;;;;;5094999;28;20339;-87
2023/10/05 12:49:34;;;;;;;10.65;2.92;;;;;;;;;;5090221;28;20432;-87
2023/10/05 12:52:00;;;;;;;8.65;2.65;;;;;;;;;;5104790;28;20468;-87
2023/10/05 12:54:29;;;;;;;6.65;2.45;;;;;;;;;;5119891;28;20028;-87
2023/10/05 12:56:55;;;;;;;9.88;2.10;;;;;;;;;;5097581;28;20032;-87
2023/10/05 12:59:22;;;;;;;9.40;2.55;;;;;;;;;;5083506;28;20048;-88
2023/10/05 13:02:15;;;;;;;9.82;3.28;;;;;;;;;;5104298;28;20046;-86
2023/10/05 13:04:42;;;;;;;9.02;2.97;;;;;;;;;;5086915;28;20386;-86
2023/10/05 13:07:08;;;;;;;12.60;3.60;;;;;;;;;;5082274;28;20319;-87
2023/10/05 13:09:34;;;;;;;10.43;3.10;;;;;;;;;;5082428;28;20050;-88
2023/10/05 13:12:08;;;;;;;10.48;2.50;;;;;;;;;;5080174;28;20326;-88
2023/10/05 13:14:34;;;;;;;9.93;2.45;;;;;;;;;;5079744;28;20100;-87
2023/10/05 13:17:00;;;;;;;10.15;2.95;;;;;;;;;;5097754;28;20409;-87
2023/10/05 13:19:26;;;;;;;11.15;6.07;;;;;;;;;;5099520;28;20031;-85
2023/10/05 13:21:52;;;;;;;7.50;4.30;;;;;;;;;;5098842;28;20032;-88
2023/10/05 13:24:20;;;;;;;5.00;2.40;;;;;;;;;;5099796;28;20024;-89
2023/10/05 13:26:47;;;;;;;6.32;3.03;;;;;;;;;;5100116;28;20028;-89
2023/10/05 13:29:16;;;;;;;15.10;9.80;;;;;;;;;;5095269;28;20031;-88
2023/10/05 13:31:43;;;;;;;13.40;7.53;;;;;;;;;;5088841;28;20060;-89
2023/10/05 13:34:09;;;;;;;23.85;8.68;;;;;;;;;;5098690;28;20383;-88
2023/10/05 13:36:36;;;;;;;7.97;2.03;;;;;;;;;;5099307;28;20021;-89
2023/10/05 13:39:12;;;;;;;19.70;7.78;;;;;;;;;;5098122;28;20032;-89
2023/10/05 13:41:44;;;;;;;11.95;3.25;;;;;;;;;;5079041;28;20311;-90
2023/10/05 13:44:10;;;;;;;6.65;2.58;;;;;;;;;;5079592;28;20124;-90
2023/10/05 13:46:43;;;;;;;10.40;4.70;;;;;;;;;;5095474;28;20145;-96
2023/10/05 13:49:09;;;;;;;12.88;4.07;;;;;;;;;;5080783;28;20029;-96
2023/10/05 13:51:35;;;;;;;6.00;2.17;;;;;;;;;;5083045;28;20039;-96
2023/10/05 13:54:06;;;;;;;8.77;1.92;;;;;;;;;;5093512;28;20031;-96
2023/10/05 13:59:37;;;;;;;7.03;2.20;;;;;;;;;;5633914;22;20934;-94
2023/10/05 14:02:04;;;;;;;9.68;2.15;;;;;;;;;;5060235;28;20024;-94
2023/10/05 14:04:30;;;;;;;9.30;2.15;;;;;;;;;;5058566;28;20087;-94
2023/10/05 14:06:59;;;;;;;5.20;2.15;;;;;;;;;;5040936;28;20029;-94
2023/10/05 14:09:26;;;;;;;5.97;2.10;;;;;;;;;;5059536;28;20040;-96
2023/10/05 14:11:52;;;;;;;4.03;1.98;;;;;;;;;;5060554;28;20112;-95
2023/10/05 14:14:18;;;;;;;6.45;2.15;;;;;;;;;;5041227;28;20474;-94
2023/10/05 14:19:49;;;;;;;10.80;2.40;;;;;;;;;;5058960;28;20346;-95
2023/10/05 14:22:16;;;;;;;7.50;2.22;;;;;;;;;;5058744;28;20087;-96
2023/10/05 14:24:45;;;;;;;5.82;2.20;;;;;;;;;;5037108;28;20052;-96
2023/10/05 14:27:11;;;;;;;3.85;1.98;;;;;;;;;;5058105;28;20108;-95
2023/10/05 14:29:38;;;;;;;7.40;1.92;;;;;;;;;;5057214;28;20025;-95
2023/10/05 14:32:41;;;;;;;6.57;2.00;;;;;;;;;;5057241;28;20029;-94
2023/10/05 14:35:09;;;;;;;3.92;1.90;;;;;;;;;;5048379;28;20028;-95
2023/10/05 14:37:42;;;;;;;3.97;2.08;;;;;;;;;;5060603;28;20115;-95
2023/10/05 14:40:13;;;;;;;6.63;1.90;;;;;;;;;;5077417;28;20074;-93
2023/10/05 14:42:40;;;;;;;8.45;2.08;;;;;;;;;;5056631;28;20029;-95
2023/10/05 14:45:07;;;;;;;8.52;2.03;;;;;;;;;;5078104;28;20032;-96
2023/10/05 14:48:12;;;;;;;8.05;2.05;;;;;;;;;;5078878;28;20024;-96
2023/10/05 14:50:40;;;;;;;6.93;3.10;;;;;;;;;;5060081;28;20028;-94
2023/10/05 14:53:11;;;;;;;10.13;3.53;;;;;;;;;;5075953;28;20032;-95
2023/10/05 14:55:38;;;;;;;7.22;3.42;;;;;;;;;;5075162;28;20139;-95
2023/10/05 14:58:08;;;;;;;11.68;2.55;;;;;;;;;;5061048;28;20024;-95
2023/10/05 15:00:35;;;;;;;11.73;2.92;;;;;;;;;;5078246;28;20044;-94
2023/10/05 15:03:01;;;;;;;12.73;2.13;;;;;;;;;;5079731;28;20033;-95
2023/10/05 15:05:27;;;;;;;7.00;2.10;;;;;;;;;;5060879;28;20048;-95
2023/10/05 15:07:58;;;;;;;7.18;2.25;;;;;;;;;;5060416;28;20410;-96
2023/10/05 15:10:24;;;;;;;6.13;2.30;;;;;;;;;;5062970;28;20418;-96
2023/10/05 15:12:51;;;;;;;17.08;2.55;;;;;;;;;;5060863;28;20040;-95
2023/10/05 15:15:18;;;;;;;11.82;2.20;;;;;;;;;;5076592;28;20021;-95
2023/10/05 15:21:25;;;;;;;6.97;2.50;;;;;;;;;;5077872;28;20027;-96
2023/10/05 15:23:51;;;;;;;8.18;2.70;;;;;;;;;;5060666;28;20048;-95
2023/10/05 15:26:17;;;;;;;4.47;2.30;;;;;;;;;;5068856;28;20028;-95
2023/10/05 15:28:43;;;;;;;9.07;2.25;;;;;;;;;;5059506;28;20078;-95
2023/10/05 15:31:09;;;;;;;10.35;2.28;;;;;;;;;;5078030;28;20032;-96
2023/10/05 15:33:36;;;;;;;11.45;3.13;;;;;;;;;;5043030;28;20017;-96
2023/10/05 15:36:02;;;;;;;9.73;2.25;;;;;;;;;;5063134;28;20021;-93
2023/10/05 15:38:29;;;;;;;6.22;2.20;;;;;;;;;;5060094;28;20394;-94
2023/10/05 15:40:55;;;;;;;17.13;2.90;;;;;;;;;;5059722;28;20123;-94
2023/10/05 15:43:22;;;;;;;14.18;3.10;;;;;;;;;;5059713;28;20032;-93
2023/10/05 15:45:50;;;;;;;10.63;3.45;;;;;;;;;;5059503;28;20410;-95
2023/10/05 15:48:16;;;;;;;9.00;2.80;;;;;;;;;;5077516;28;20033;-93
2023/10/05 15:50:43;;;;;;;8.75;2.55;;;;;;;;;;5077164;28;20020;-95
2023/10/05 15:53:09;;;;;;;11.80;2.45;;;;;;;;;;5075636;28;20056;-93
2023/10/05 15:55:36;;;;;;;12.52;3.20;;;;;;;;;;5075250;28;20025;-94
2023/10/05 15:58:06;;;;;;;13.68;2.88;;;;;;;;;;5077194;28;20012;-93
2023/10/05 16:00:34;;;;;;;16.98;3.08;;;;;;;;;;5059568;28;20066;-93
2023/10/05 16:03:01;;;;;;;17.65;3.10;;;;;;;;;;5059272;28;20024;-93
2023/10/05 16:05:28;;;;;;;20.13;3.35;;;;;;;;;;5058984;28;20138;-92
2023/10/05 16:07:59;;;;;;;11.48;2.92;;;;;;;;;;5077437;28;20112;-95
2023/10/05 16:10:25;;;;;;;14.13;3.15;;;;;;;;;;5059084;28;20108;-91
2023/10/05 16:12:53;;;;;;;21.58;3.90;;;;;;;;;;5076928;28;20040;-90
2023/10/05 16:15:20;;;;;;;16.35;3.90;;;;;;;;;;5076154;28;20063;-91
2023/10/05 16:17:47;;;;;;;19.58;4.03;;;;;;;;;;5076127;28;20406;-91
2023/10/05 16:20:16;;;;;;;20.38;4.25;;;;;;;;;;5076563;28;20029;-91
2023/10/05 16:22:42;;;;;;;16.13;3.83;;;;;;;;;;5075289;28;20402;-92
2023/10/05 16:25:11;;;;;;;16.00;3.42;;;;;;;;;;5060588;28;20071;-91
2023/10/05 16:27:39;;;;;;;23.40;3.85;;;;;;;;;;5061766;28;20033;-88
2023/10/05 16:30:06;;;;;;;19.02;4.25;;;;;;;;;;5080156;28;20089;-87
2023/10/05 16:32:54;;;;;;;27.45;4.20;;;;;;;;;;5063096;28;20353;-90
2023/10/05 16:35:20;;;;;;;15.63;4.13;;;;;;;;;;5066888;28;20314;-91
2023/10/05 16:37:48;;;;;;;19.95;3.60;;;;;;;;;;5080324;28;20029;-90
2023/10/05 16:40:18;;;;;;;29.48;5.03;;;;;;;;;;5062957;28;20044;-92
2023/10/05 16:42:46;;;;;;;15.07;4.40;;;;;;;;;;5080746;28;20111;-91
2023/10/05 16:45:21;;;;;;;19.00;4.18;;;;;;;;;;5080037;28;20025;-92
2023/10/05 16:47:48;;;;;;;18.42;4.30;;;;;;;;;;5062530;28;20150;-91
2023/10/05 16:50:15;;;;;;;23.35;4.20;;;;;;;;;;5062568;28;20070;-91
2023/10/05 16:52:45;;;;;;;15.23;3.90;;;;;;;;;;5080138;28;20094;-93
2023/10/05 16:55:11;;;;;;;17.85;4.35;;;;;;;;;;5062195;28;20126;-91
2023/10/05 16:57:38;;;;;;;15.18;3.78;;;;;;;;;;5080320;28;20318;-92
2023/10/05 17:00:15;;;;;;;14.45;3.78;;;;;;;;;;5062265;28;20040;-91
2023/10/05 17:02:58;;;;;;;11.55;3.30;;;;;;;;;;5080325;28;20074;-91
2023/10/05 17:05:27;;;;;;;15.65;3.55;;;;;;;;;;5056731;28;21788;-92
2023/10/05 17:07:54;;;;;;;15.13;3.50;;;;;;;;;;5042098;28;20505;-92
2023/10/05 17:10:21;;;;;;;8.85;3.47;;;;;;;;;;5042148;28;20342;-92
2023/10/05 17:12:47;;;;;;;14.15;3.60;;;;;;;;;;5073679;28;20027;-91
2023/10/05 17:15:17;;;;;;;14.60;3.22;;;;;;;;;;5079159;28;20032;-91
2023/10/05 17:18:05;;;;;;;13.95;3.17;;;;;;;;;;5082168;28;20024;-94
2023/10/05 17:20:32;;;;;;;13.95;3.45;;;;;;;;;;5063307;28;20048;-96
2023/10/05 17:22:58;;;;;;;12.18;3.38;;;;;;;;;;5080091;28;20024;-95
2023/10/05 17:25:26;;;;;;;13.82;3.28;;;;;;;;;;5063618;28;20127;-96
2023/10/05 17:27:52;;;;;;;14.02;4.20;;;;;;;;;;5063208;28;20314;-95
2023/10/05 17:30:18;;;;;;;11.43;3.55;;;;;;;;;;5079344;28;20036;-95
2023/10/05 17:35:48;;;;;;;13.25;3.45;;;;;;;;;;5083123;28;20023;-95
2023/10/05 17:38:14;;;;;;;11.35;3.08;;;;;;;;;;5068643;28;20017;-94
2023/10/05 17:40:40;;;;;;;12.82;3.45;;;;;;;;;;5058641;28;20071;-95
2023/10/05 17:43:08;;;;;;;19.42;4.13;;;;;;;;;;5059152;28;20032;-95
2023/10/05 17:45:37;;;;;;;16.23;4.68;;;;;;;;;;5061408;28;20449;-96
2023/10/05 17:48:04;;;;;;;25.75;4.20;;;;;;;;;;5061562;28;20031;-95
2023/10/05 17:50:30;;;;;;;22.40;4.38;;;;;;;;;;5079599;28;20432;-94
2023/10/05 17:52:59;;;;;;;18.15;3.70;;;;;;;;;;5061417;28;20580;-94
2023/10/05 17:55:25;;;;;;;16.27;4.20;;;;;;;;;;5079995;28;20029;-96
2023/10/05 17:57:51;;;;;;;16.27;4.05;;;;;;;;;;5059867;28;20021;-96
2023/10/05 18:00:17;;;;;;;20.23;4.43;;;;;;;;;;5059561;28;20040;-96
2023/10/05 18:02:43;;;;;;;22.25;4.20;;;;;;;;;;5057975;28;20049;-95
2023/10/05 18:05:12;;;;;;;19.42;4.07;;;;;;;;;;5061043;28;20032;-94
2023/10/05 18:07:38;;;;;;;14.45;4.18;;;;;;;;;;5079593;28;20032;-94
2023/10/05 18:10:07;;;;;;;12.68;3.67;;;;;;;;;;5063226;28;20036;-95
2023/10/05 18:12:34;;;;;;;12.95;4.03;;;;;;;;;;5081655;28;20029;-96
2023/10/05 18:15:00;;;;;;;18.77;4.72;;;;;;;;;;5058362;28;20029;-96
2023/10/05 18:17:27;;;;;;;16.58;3.92;;;;;;;;;;5064642;28;20021;-96
2023/10/05 18:22:56;;;;;;;13.77;4.05;;;;;;;;;;5079947;28;20058;-94
2023/10/05 18:25:23;;;;;;;13.60;4.50;;;;;;;;;;5080208;28;20028;-95
2023/10/05 18:27:49;;;;;;;16.23;4.07;;;;;;;;;;5078943;28;20028;-95
2023/10/05 18:30:15;;;;;;;13.27;3.90;;;;;;;;;;5061714;28;20040;-95
2023/10/05 18:35:45;;;;;;;17.42;4.05;;;;;;;;;;5092506;28;20149;-94
2023/10/05 18:38:12;;;;;;;11.00;4.28;;;;;;;;;;5080839;28;20063;-95
2023/10/05 18:40:38;;;;;;;11.02;4.07;;;;;;;;;;5079541;28;20298;-96
2023/10/05 18:43:04;;;;;;;12.75;4.13;;;;;;;;;;5068573;28;20060;-95
2023/10/05 18:45:30;;;;;;;18.48;4.70;;;;;;;;;;5060392;28;20025;-95
2023/10/05 18:47:57;;;;;;;12.30;4.82;;;;;;;;;;5077896;28;20032;-95
2023/10/05 18:50:25;;;;;;;16.38;5.72;;;;;;;;;;5077984;28;20017;-94
2023/10/05 18:52:56;;;;;;;14.60;5.70;;;;;;;;;;5060729;28;20032;-96
2023/10/05 18:55:25;;;;;;;18.37;6.03;;;;;;;;;;5073050;28;20048;-88
2023/10/05 18:57:52;;;;;;;18.80;7.75;;;;;;;;;;5060011;28;20414;-91
2023/10/05 19:00:21;;;;;;;19.00;9.77;;;;;;;;;;5071816;28;20053;-90
2023/10/05 19:05:51;;;;;;;28.52;15.13;;;;;;;;;;5077877;28;20027;-88
2023/10/05 19:08:17;;;;;;;38.78;20.45;;;;;;;;;;5059615;28;20032;-87
2023/10/05 19:10:43;;;;;;;64.85;34.03;;;;;;;;;;5077722;28;20013;-87
2023/10/05 19:13:09;;;;;;;74.13;35.72;;;;;;;;;;5059925;28;20074;-88
2023/10/05 19:15:36;;;;;;;78.82;37.00;;;;;;;;;;5077209;28;20279;-88
2023/10/05 19:18:17;;;;;;;63.80;32.20;;;;;;;;;;5074004;28;20085;-88
2023/10/05 19:20:43;;;;;;;56.03;22.63;;;;;;;;;;5076598;28;20027;-88
2023/10/05 19:23:09;;;;;;;33.03;15.88;;;;;;;;;;5059792;28;20128;-88
2023/10/05 19:25:39;;;;;;;33.40;13.60;;;;;;;;;;5060032;28;20029;-88
2023/10/05 19:28:05;;;;;;;25.25;12.45;;;;;;;;;;5059729;28;20028;-88
2023/10/05 19:30:31;;;;;;;28.67;9.90;;;;;;;;;;5077573;28;20070;-94
2023/10/05 19:32:58;;;;;;;26.98;9.05;;;;;;;;;;5077642;28;20288;-93
2023/10/05 19:35:24;;;;;;;27.05;8.77;;;;;;;;;;5059583;28;20115;-94
2023/10/05 19:37:50;;;;;;;25.15;7.28;;;;;;;;;;5060064;28;20028;-95
2023/10/05 19:40:16;;;;;;;23.17;7.13;;;;;;;;;;5061052;28;20024;-93
2023/10/05 19:42:42;;;;;;;21.25;5.95;;;;;;;;;;5059679;28;20115;-93
2023/10/05 19:45:10;;;;;;;25.38;7.07;;;;;;;;;;5077464;28;20078;-93
2023/10/05 19:47:36;;;;;;;14.25;5.63;;;;;;;;;;5077277;28;20036;-93
2023/10/05 19:50:05;;;;;;;15.55;5.47;;;;;;;;;;5079446;28;20055;-94
2023/10/05 19:52:31;;;;;;;18.00;4.78;;;;;;;;;;5077942;28;20345;-86
2023/10/05 19:54:57;;;;;;;33.65;7.72;;;;;;;;;;5063575;28;20021;-87
2023/10/05 19:57:24;;;;;;;23.55;5.85;;;;;;;;;;5080963;28;20482;-87
2023/10/05 19:59:51;;;;;;;22.88;6.30;;;;;;;;;;5080996;28;20040;-86
2023/10/05 20:02:18;;;;;;;22.02;4.82;;;;;;;;;;5060668;28;20036;-85
2023/10/05 20:04:44;;;;;;;20.98;4.30;;;;;;;;;;5067357;28;20429;-86
2023/10/05 20:07:10;;;;;;;17.50;5.18;;;;;;;;;;5056478;28;20036;-85
2023/10/05 20:09:38;;;;;;;18.08;5.00;;;;;;;;;;5064086;28;20029;-86
2023/10/05 20:12:05;;;;;;;17.35;4.22;;;;;;;;;;5068368;28;20028;-90
2023/10/05 20:14:34;;;;;;;13.60;4.25;;;;;;;;;;5062221;28;20426;-91
2023/10/05 20:17:00;;;;;;;16.30;4.25;;;;;;;;;;5080680;28;20039;-91
2023/10/05 20:19:26;;;;;;;21.52;4.90;;;;;;;;;;5080204;28;20103;-92
2023/10/05 20:21:53;;;;;;;15.02;3.95;;;;;;;;;;5059315;28;20102;-92
2023/10/05 20:24:22;;;;;;;20.20;4.15;;;;;;;;;;5060915;28;20029;-89
2023/10/05 20:26:48;;;;;;;13.50;3.95;;;;;;;;;;5059467;28;20050;-90
2023/10/05 20:29:15;;;;;;;23.08;4.40;;;;;;;;;;5059589;28;20079;-92
2023/10/05 20:31:41;;;;;;;13.63;4.30;;;;;;;;;;5067066;28;20056;-91
2023/10/05 20:34:07;;;;;;;18.52;3.58;;;;;;;;;;5080765;28;20021;-91
2023/10/05 20:36:37;;;;;;;15.95;3.55;;;;;;;;;;5079554;28;20066;-91
2023/10/05 20:39:05;;;;;;;17.23;4.18;;;;;;;;;;5062915;28;20411;-91
2023/10/05 20:41:32;;;;;;;15.27;3.97;;;;;;;;;;5080407;28;20033;-91
2023/10/05 20:43:59;;;;;;;23.35;3.95;;;;;;;;;;5080756;28;20028;-92
2023/10/05 20:46:25;;;;;;;16.50;4.03;;;;;;;;;;5062511;28;20048;-91
2023/10/05 20:48:51;;;;;;;22.35;4.00;;;;;;;;;;5080653;28;20111;-91
2023/10/05 20:51:19;;;;;;;12.98;3.50;;;;;;;;;;5080432;28;20059;-91
2023/10/05 20:53:45;;;;;;;22.52;4.55;;;;;;;;;;5080300;28;20028;-91